Hauptseite
METAR-TAF:

METAR-TAF

Flughäfen :

Flughafen Albert-Picardie

Albert, Frankreich

Breite: 49-58-21N, Länge: 002-41-29E, Höhe: 111 m

Beobachtung

Neuester Wetterbericht von vor 36 Minuten, um 17:30 UTC
Wind 4 kt aus Süd
Temperatur 11°C
Luftfeuchtigkeit 87%
Luftdruck 1005 hPa
Sichtweite 10 km oder mehr
keine Wolken unter 1500 m und keine Kumulonimbus oder Gewitterwolken

METAR: LFAQ 191730Z AUTO 18004KT CAVOK 11/09 Q1005

Zeit: 20:06 (18:06 UTC)

Prognose

Neuester Wetterbericht von vor 4 Stunden und 6 Minuten, um 14:00 UTC
Gültige Prognose vom 19 um 15 UTC bis 19 um 24 UTC
Wind 12 kt aus Süd/Südwest
Sichtweite 10 km oder mehr
Aufgelockert bewölkt in der Höhe von 2500 ft
Übergehend zu
vom 19 um 20 UTC bis 19 um 23 UTC
Wind 2 kt aus unterschiedlichen Richtungen

TAF: LFAQ 191400Z 1915/1924 20012KT 9999 SCT025 BECMG 1920/1923 VRB02KT

Wetterbeobachtungen und Prognosen von mehr als 4000 Flughäfen (METAR und TAF Bericht).

Die verfügbaren Stationen werden durch gelbe und rote Markierungen auf der Karte dargestellt.

Führen Sie die Maus auf sie, um den Namen der Station zu sehen.

Darauf klicken, um die Beobachtung von Wetterbeobachtungen und Prognosen zu sehen.

Um die Karte zu ändern : klicken Sie auf den grünen Tasten mit einem schwarzen Kreuz Zum Vergrößern, auf den grünen Button mit einem Gedankenstrich zu verkleinern, oder auf die grünen Pfeile für benachbarte Karten.


METAR-TAF: